createdAt,value
2019-03-19T00:01:02.770Z,26.73
2019-03-19T00:03:33.569Z,25.17
2019-03-19T00:06:03.942Z,24.60
2019-03-19T00:08:34.541Z,25.23
2019-03-19T00:11:04.811Z,26.93
2019-03-19T00:13:35.051Z,24.83
2019-03-19T00:16:05.339Z,23.87
2019-03-19T00:18:35.582Z,24.77
2019-03-19T00:21:05.852Z,23.10
2019-03-19T00:23:36.135Z,23.87
2019-03-19T00:26:06.411Z,27.20
2019-03-19T00:28:38.993Z,28.53
2019-03-19T00:31:08.513Z,25.57
2019-03-19T00:33:38.684Z,28.87
2019-03-19T00:36:09.062Z,24.20
2019-03-19T00:38:39.332Z,29.20
2019-03-19T00:41:09.606Z,24.47
2019-03-19T00:43:39.860Z,24.87
2019-03-19T00:46:10.196Z,34.77
2019-03-19T00:48:40.451Z,28.20
2019-03-19T00:51:10.725Z,25.80
2019-03-19T00:53:40.950Z,21.57
2019-03-19T00:56:12.413Z,24.80
2019-03-19T00:58:42.642Z,21.37
2019-03-19T01:01:13.224Z,21.27
2019-03-19T01:03:43.512Z,17.97
2019-03-19T01:06:13.771Z,22.20
2019-03-19T01:08:44.129Z,23.50
2019-03-19T01:11:15.097Z,17.80
2019-03-19T01:13:45.343Z,22.67
2019-03-19T01:16:15.710Z,17.43
2019-03-19T01:18:46.012Z,26.97
2019-03-19T01:21:16.265Z,23.80
2019-03-19T01:23:46.550Z,20.27
2019-03-19T01:26:16.852Z,22.47
2019-03-19T01:28:47.310Z,26.57
2019-03-19T01:31:17.602Z,19.00
2019-03-19T01:33:47.888Z,21.93
2019-03-19T01:36:18.185Z,22.80
2019-03-19T01:38:48.466Z,19.77
2019-03-19T01:41:18.761Z,20.63
2019-03-19T01:43:49.158Z,18.67
2019-03-19T01:46:19.968Z,20.47
2019-03-19T01:48:50.285Z,19.83
2019-03-19T01:51:20.651Z,19.67
2019-03-19T01:53:50.886Z,20.63
2019-03-19T01:56:21.170Z,23.77
2019-03-19T01:58:51.408Z,22.47
2019-03-19T02:01:21.872Z,20.73
2019-03-19T02:03:52.222Z,24.33
2019-03-19T02:06:22.654Z,22.30
2019-03-19T02:08:52.892Z,20.40
2019-03-19T02:11:23.151Z,20.27
2019-03-19T02:13:53.407Z,23.27
2019-03-19T02:16:23.675Z,19.13
2019-03-19T02:18:54.346Z,19.97
2019-03-19T02:21:24.644Z,20.67
2019-03-19T02:23:55.290Z,20.63
2019-03-19T02:26:25.610Z,23.10
2019-03-19T02:28:55.934Z,20.87
2019-03-19T02:31:26.690Z,21.47
2019-03-19T02:33:56.919Z,23.37
2019-03-19T02:36:27.522Z,23.33
2019-03-19T02:38:57.799Z,16.47
2019-03-19T02:41:28.131Z,20.83
2019-03-19T02:43:58.411Z,19.67
2019-03-19T02:46:29.912Z,20.17
2019-03-19T02:49:01.326Z,24.07
2019-03-19T02:51:31.885Z,18.13
2019-03-19T02:54:02.110Z,18.27
2019-03-19T02:56:33.687Z,19.87
2019-03-19T02:59:04.176Z,20.60
2019-03-19T03:01:34.531Z,21.03
2019-03-19T03:04:04.803Z,20.97
2019-03-19T03:06:35.196Z,25.77
2019-03-19T03:09:07.231Z,23.20
2019-03-19T03:11:37.552Z,20.60
2019-03-19T03:14:07.801Z,24.37
2019-03-19T03:16:38.083Z,17.97
2019-03-19T03:19:08.369Z,20.43
2019-03-19T03:21:38.583Z,22.30
2019-03-19T03:24:08.867Z,17.83
2019-03-19T03:26:47.491Z,19.70
2019-03-19T03:29:11.349Z,21.70
2019-03-19T03:31:41.656Z,19.13
2019-03-19T03:34:12.102Z,23.63
2019-03-19T03:36:42.331Z,21.00
2019-03-19T03:39:12.582Z,17.37
2019-03-19T03:41:43.014Z,21.63
2019-03-19T03:44:13.242Z,23.60
2019-03-19T03:46:43.546Z,21.10
2019-03-19T03:49:13.830Z,25.90
2019-03-19T03:51:44.113Z,20.27
2019-03-19T03:54:14.413Z,20.77
2019-03-19T03:56:44.674Z,18.23
2019-03-19T03:59:14.941Z,18.17
2019-03-19T04:01:45.276Z,20.63
2019-03-19T04:04:15.600Z,17.83
2019-03-19T04:06:45.838Z,21.23
2019-03-19T04:09:16.396Z,19.47
2019-03-19T04:11:46.647Z,20.20
2019-03-19T04:14:17.174Z,17.63
2019-03-19T04:16:47.420Z,19.10
2019-03-19T04:19:18.832Z,17.87
2019-03-19T04:21:49.151Z,23.23
2019-03-19T04:24:19.430Z,18.27
2019-03-19T04:26:49.667Z,24.63
2019-03-19T04:29:19.887Z,17.63
2019-03-19T04:31:50.145Z,16.40
2019-03-19T04:34:20.472Z,19.13
2019-03-19T04:36:50.692Z,14.33
2019-03-19T04:39:20.953Z,25.57
2019-03-19T04:41:51.132Z,28.07
2019-03-19T04:44:21.415Z,20.33
2019-03-19T04:46:51.649Z,19.73
2019-03-19T04:49:21.916Z,23.63
2019-03-19T04:51:52.098Z,22.00
2019-03-19T04:54:22.386Z,16.20
2019-03-19T04:56:52.641Z,16.20
2019-03-19T04:59:22.913Z,19.90
2019-03-19T05:01:53.194Z,15.57
2019-03-19T05:04:23.492Z,21.97
2019-03-19T05:06:53.796Z,26.07
2019-03-19T05:09:24.087Z,19.17
2019-03-19T05:11:54.426Z,24.00
2019-03-19T05:14:24.691Z,18.03
2019-03-19T05:16:56.064Z,24.10
2019-03-19T05:19:26.332Z,22.07
2019-03-19T05:21:56.559Z,19.60
2019-03-19T05:24:26.844Z,20.23
2019-03-19T05:26:57.060Z,16.40
2019-03-19T05:29:27.322Z,18.90
2019-03-19T05:31:57.606Z,21.10
2019-03-19T05:34:27.914Z,24.83
2019-03-19T05:36:58.185Z,21.47
2019-03-19T05:39:28.442Z,24.83
2019-03-19T05:41:58.982Z,21.27
2019-03-19T05:44:29.302Z,19.50
2019-03-19T05:46:59.558Z,22.43
2019-03-19T05:49:29.816Z,18.83
2019-03-19T05:52:00.114Z,21.37
2019-03-19T05:54:30.489Z,18.23
2019-03-19T05:57:00.788Z,22.37
2019-03-19T05:59:33.549Z,23.17
2019-03-19T06:02:03.786Z,16.70
2019-03-19T06:04:34.127Z,22.00
2019-03-19T06:07:04.513Z,20.27
2019-03-19T06:09:34.776Z,18.10
2019-03-19T06:12:05.264Z,21.00
2019-03-19T06:14:35.814Z,25.30
2019-03-19T06:17:06.090Z,21.97
2019-03-19T06:19:36.778Z,24.33
2019-03-19T06:22:07.051Z,18.00
2019-03-19T06:24:37.306Z,27.13
2019-03-19T06:27:08.148Z,19.23
2019-03-19T06:29:38.378Z,22.30
2019-03-19T06:32:08.634Z,19.33
2019-03-19T06:34:38.923Z,23.57
2019-03-19T06:37:09.279Z,20.70
2019-03-19T06:39:39.562Z,22.70
2019-03-19T06:42:10.066Z,19.70
2019-03-19T06:44:40.483Z,25.73
2019-03-19T06:47:11.016Z,19.73
2019-03-19T06:49:41.322Z,20.97
2019-03-19T06:52:11.581Z,21.53
2019-03-19T06:54:41.846Z,17.90
2019-03-19T06:57:12.129Z,22.13
2019-03-19T06:59:42.375Z,19.60
2019-03-19T07:02:12.643Z,17.77
2019-03-19T07:04:42.996Z,18.17
2019-03-19T07:07:13.287Z,16.67
2019-03-19T07:09:43.557Z,21.67
2019-03-19T07:12:13.872Z,18.80
2019-03-19T07:14:44.173Z,25.43
2019-03-19T07:17:14.455Z,19.00
2019-03-19T07:19:45.253Z,26.93
2019-03-19T07:22:15.515Z,17.30
2019-03-19T07:24:48.036Z,20.73
2019-03-19T07:27:17.821Z,21.93
2019-03-19T07:29:48.616Z,21.50
2019-03-19T07:32:18.879Z,20.60
2019-03-19T07:34:49.153Z,23.70
2019-03-19T07:37:19.523Z,20.13
2019-03-19T07:39:49.974Z,27.90
2019-03-19T07:42:20.207Z,22.33
2019-03-19T07:44:51.245Z,24.50
2019-03-19T07:47:21.523Z,25.27
2019-03-19T07:49:51.803Z,23.47
2019-03-19T07:52:22.046Z,23.20
2019-03-19T07:54:52.314Z,22.60
2019-03-19T07:57:22.587Z,27.43
2019-03-19T07:59:52.903Z,25.10
2019-03-19T08:02:23.153Z,22.20
2019-03-19T08:04:53.473Z,24.37
2019-03-19T08:07:23.775Z,20.43
2019-03-19T08:09:54.118Z,29.57
2019-03-19T08:12:24.350Z,22.43
2019-03-19T08:14:54.672Z,27.13
2019-03-19T08:17:24.955Z,28.67
2019-03-19T08:19:57.195Z,27.10
2019-03-19T08:22:27.259Z,27.10
2019-03-19T08:24:57.592Z,30.77
2019-03-19T08:27:27.866Z,25.70
2019-03-19T08:29:58.584Z,26.00
2019-03-19T08:32:28.806Z,33.53
2019-03-19T08:35:00.358Z,17.50
2019-03-19T08:37:30.633Z,25.23
2019-03-19T08:40:00.955Z,21.30
2019-03-19T08:42:31.208Z,21.80
2019-03-19T08:45:01.359Z,22.53
2019-03-19T08:47:31.725Z,23.87
2019-03-19T08:50:01.956Z,25.20
2019-03-19T08:52:32.246Z,22.40
2019-03-19T08:55:03.788Z,21.73
2019-03-19T08:57:34.342Z,21.50
2019-03-19T09:00:05.885Z,16.40
2019-03-19T09:02:37.598Z,18.37
2019-03-19T09:05:08.946Z,22.83
2019-03-19T09:07:39.226Z,21.13
2019-03-19T09:10:10.463Z,22.60
2019-03-19T09:12:41.216Z,20.90
2019-03-19T09:15:12.478Z,19.93
2019-03-19T09:17:43.072Z,19.43
2019-03-19T09:20:13.722Z,20.17
2019-03-19T09:22:44.188Z,22.90
2019-03-19T09:25:14.453Z,19.87
2019-03-19T09:27:44.827Z,18.67
2019-03-19T09:30:16.144Z,24.27
2019-03-19T09:32:46.575Z,20.73
2019-03-19T09:35:16.912Z,26.20
2019-03-19T09:37:57.746Z,19.20
2019-03-19T09:40:19.322Z,16.87
2019-03-19T09:42:49.587Z,21.63
2019-03-19T09:45:20.960Z,20.90
2019-03-19T09:47:51.244Z,21.37
2019-03-19T09:50:21.490Z,22.57
2019-03-19T09:52:51.877Z,22.13
2019-03-19T09:55:22.118Z,23.30
2019-03-19T09:57:52.376Z,21.07
2019-03-19T10:00:23.723Z,27.47
2019-03-19T10:02:54.011Z,19.67
2019-03-19T10:05:24.308Z,24.87
2019-03-19T10:07:55.698Z,17.40
2019-03-19T10:10:26.107Z,18.77
2019-03-19T10:12:56.378Z,17.43
2019-03-19T10:15:26.704Z,23.90
2019-03-19T10:17:56.934Z,21.37
2019-03-19T10:20:27.332Z,17.27
2019-03-19T10:22:57.674Z,17.33
2019-03-19T10:25:27.991Z,21.23
2019-03-19T10:27:58.354Z,16.90
2019-03-19T10:30:28.711Z,20.90
2019-03-19T10:32:59.065Z,19.37
2019-03-19T10:35:29.337Z,21.17
2019-03-19T10:38:00.806Z,18.50
2019-03-19T10:40:31.067Z,20.67
2019-03-19T10:43:01.353Z,20.20
2019-03-19T10:45:31.854Z,18.63
2019-03-19T10:48:02.091Z,23.33
2019-03-19T10:50:32.634Z,20.77
2019-03-19T10:53:03.221Z,17.23
2019-03-19T10:55:33.844Z,16.47
2019-03-19T10:58:10.975Z,21.43
2019-03-19T11:00:36.283Z,17.77
2019-03-19T11:03:06.691Z,18.90
2019-03-19T11:05:36.982Z,17.57
2019-03-19T11:08:07.329Z,24.60
2019-03-19T11:10:37.632Z,19.20
2019-03-19T11:13:08.111Z,16.70
2019-03-19T11:15:38.389Z,19.47
2019-03-19T11:18:08.609Z,16.77
2019-03-19T11:20:38.922Z,17.07
2019-03-19T11:23:09.252Z,19.20
2019-03-19T11:25:39.481Z,19.67
2019-03-19T11:28:09.886Z,25.13
2019-03-19T11:30:40.141Z,26.57
2019-03-19T11:33:10.437Z,25.00
2019-03-19T11:35:41.076Z,20.90
2019-03-19T11:38:11.469Z,23.50
2019-03-19T11:40:41.775Z,28.90
2019-03-19T11:43:12.358Z,18.23
2019-03-19T11:45:42.969Z,18.27
2019-03-19T11:48:13.387Z,20.77
2019-03-19T11:50:43.697Z,18.13
2019-03-19T11:53:14.001Z,22.40
2019-03-19T11:55:44.171Z,18.10
2019-03-19T11:58:14.478Z,17.97
2019-03-19T12:00:47.270Z,18.07
2019-03-19T12:03:17.562Z,15.43
2019-03-19T12:05:47.907Z,23.17
2019-03-19T12:08:18.567Z,24.27
2019-03-19T12:10:48.791Z,24.97
2019-03-19T12:13:19.025Z,21.53
2019-03-19T12:15:49.571Z,22.23
2019-03-19T12:18:19.903Z,23.67
2019-03-19T12:20:50.158Z,19.40
2019-03-19T12:23:20.488Z,17.77
2019-03-19T12:25:50.766Z,21.20
2019-03-19T12:28:21.170Z,22.83
2019-03-19T12:30:51.444Z,25.07
2019-03-19T12:33:22.026Z,19.73
2019-03-19T12:35:52.279Z,20.50
2019-03-19T12:38:22.550Z,23.37
2019-03-19T12:40:52.836Z,21.73
2019-03-19T12:43:23.105Z,24.77
2019-03-19T12:45:53.335Z,23.83
2019-03-19T12:48:23.759Z,20.77
2019-03-19T12:50:54.030Z,18.87
2019-03-19T12:53:24.262Z,18.93
2019-03-19T12:55:54.526Z,23.20
2019-03-19T12:58:24.768Z,24.17
2019-03-19T13:00:55.043Z,24.33
2019-03-19T13:03:25.334Z,24.73
2019-03-19T13:05:55.727Z,25.67
2019-03-19T13:08:25.990Z,24.03
2019-03-19T13:10:56.264Z,24.03
2019-03-19T13:13:26.528Z,36.30
2019-03-19T13:15:56.884Z,25.50
2019-03-19T13:18:27.539Z,25.80
2019-03-19T13:20:57.773Z,23.63
2019-03-19T13:23:28.290Z,23.37
2019-03-19T13:25:58.560Z,21.43
2019-03-19T13:28:28.862Z,21.17
2019-03-19T13:30:59.179Z,23.60
2019-03-19T13:33:29.478Z,26.47
2019-03-19T13:35:59.736Z,33.63
2019-03-19T13:38:30.050Z,31.63
2019-03-19T13:41:00.372Z,29.03
2019-03-19T13:43:30.739Z,23.20
2019-03-19T13:46:01.193Z,28.10
2019-03-19T13:48:31.560Z,29.13
2019-03-19T13:51:01.970Z,29.40
2019-03-19T13:53:32.213Z,27.33
2019-03-19T13:56:02.542Z,21.53
2019-03-19T13:58:33.247Z,27.30
2019-03-19T14:01:03.500Z,28.53
2019-03-19T14:03:33.832Z,27.87
2019-03-19T14:06:04.117Z,28.77
2019-03-19T14:08:34.445Z,28.60
2019-03-19T14:11:04.714Z,29.83
2019-03-19T14:13:34.965Z,18.97
2019-03-19T14:16:05.271Z,22.77
2019-03-19T14:18:35.516Z,21.07
2019-03-19T14:21:05.780Z,25.07
2019-03-19T14:23:36.109Z,23.17
2019-03-19T14:26:06.374Z,22.47
2019-03-19T14:28:36.608Z,29.93
2019-03-19T14:31:08.927Z,28.13
2019-03-19T14:33:38.941Z,26.13
2019-03-19T14:36:10.369Z,22.33
2019-03-19T14:38:47.016Z,25.20
2019-03-19T14:41:14.075Z,25.80
2019-03-19T14:43:44.347Z,27.67
2019-03-19T14:46:14.598Z,24.10
2019-03-19T14:48:45.058Z,25.73
2019-03-19T14:51:16.663Z,27.80
2019-03-19T14:53:47.079Z,22.33
2019-03-19T14:56:17.332Z,21.33
2019-03-19T14:58:48.627Z,25.97
2019-03-19T15:01:19.817Z,24.07
2019-03-19T15:03:51.280Z,21.93
2019-03-19T15:06:21.602Z,26.20
2019-03-19T15:08:51.941Z,23.87
2019-03-19T15:11:22.223Z,25.50
2019-03-19T15:13:52.496Z,29.77
2019-03-19T15:16:22.797Z,21.70
2019-03-19T15:18:53.069Z,26.93
2019-03-19T15:21:23.310Z,31.00
2019-03-19T15:23:53.671Z,25.73
2019-03-19T15:26:24.027Z,26.77
2019-03-19T15:28:54.624Z,29.43
2019-03-19T15:31:29.704Z,24.73
2019-03-19T15:33:56.927Z,30.17
2019-03-19T15:36:27.562Z,27.93
2019-03-19T15:38:57.926Z,29.23
2019-03-19T15:41:29.290Z,34.23
2019-03-19T15:43:59.689Z,27.43
2019-03-19T15:46:30.544Z,32.10
2019-03-19T15:49:00.923Z,24.10
2019-03-19T15:51:31.243Z,28.40
2019-03-19T15:54:01.561Z,30.77
2019-03-19T15:56:31.829Z,25.17
2019-03-19T15:59:02.632Z,32.00
2019-03-19T16:01:40.052Z,30.80
2019-03-19T16:04:05.145Z,30.17
2019-03-19T16:06:35.824Z,33.33
2019-03-19T16:09:09.091Z,31.60
2019-03-19T16:11:39.617Z,29.43
2019-03-19T16:14:10.146Z,33.53
2019-03-19T16:16:40.406Z,35.70
2019-03-19T16:19:11.175Z,32.43
2019-03-19T16:21:41.419Z,25.50
2019-03-19T16:24:11.667Z,26.37
2019-03-19T16:26:42.214Z,24.70
2019-03-19T16:29:12.659Z,26.20
2019-03-19T16:31:50.575Z,32.83
2019-03-19T16:34:14.956Z,26.43
2019-03-19T16:36:45.239Z,26.23
2019-03-19T16:39:15.566Z,24.27
2019-03-19T16:41:45.838Z,29.50
2019-03-19T16:44:16.161Z,25.87
2019-03-19T16:46:46.396Z,27.67
2019-03-19T16:49:16.706Z,28.23
2019-03-19T16:51:47.308Z,30.03
2019-03-19T16:54:17.970Z,33.90
2019-03-19T16:56:48.221Z,35.30
2019-03-19T16:59:18.594Z,30.50
2019-03-19T17:01:48.860Z,27.53
2019-03-19T17:04:20.081Z,31.67
2019-03-19T17:06:50.646Z,31.07
2019-03-19T17:09:21.472Z,31.43
2019-03-19T17:11:51.746Z,31.60
2019-03-19T17:14:22.256Z,25.70
2019-03-19T17:16:52.626Z,29.73
2019-03-19T17:19:22.906Z,30.37
2019-03-19T17:21:53.208Z,29.67
2019-03-19T17:24:23.468Z,28.50
2019-03-19T17:26:54.232Z,34.73
2019-03-19T17:29:24.840Z,37.47
2019-03-19T17:31:55.108Z,31.87
2019-03-19T17:34:25.354Z,28.57
2019-03-19T17:36:55.760Z,33.57
2019-03-19T17:39:26.088Z,28.30
2019-03-19T17:41:56.482Z,25.90
2019-03-19T17:44:26.710Z,31.90
2019-03-19T17:46:56.954Z,32.17
2019-03-19T17:49:27.258Z,32.33
2019-03-19T17:51:57.526Z,29.80
2019-03-19T17:54:27.955Z,33.30
2019-03-19T17:56:58.335Z,30.27
2019-03-19T17:59:28.648Z,37.73
2019-03-19T18:02:00.301Z,31.20
2019-03-19T18:04:30.930Z,31.77
2019-03-19T18:07:02.363Z,35.80
2019-03-19T18:09:32.613Z,30.17
2019-03-19T18:12:03.447Z,32.47
2019-03-19T18:14:33.688Z,36.90
2019-03-19T18:17:03.965Z,30.13
2019-03-19T18:19:34.262Z,30.03
2019-03-19T18:22:05.801Z,29.73
2019-03-19T18:24:36.204Z,36.00
2019-03-19T18:27:06.487Z,32.70
2019-03-19T18:29:36.765Z,36.43
2019-03-19T18:32:08.394Z,39.70
2019-03-19T18:34:38.679Z,35.30
2019-03-19T18:37:08.983Z,36.00
2019-03-19T18:39:39.314Z,36.93
2019-03-19T18:42:09.748Z,38.43
2019-03-19T18:44:39.991Z,34.07
2019-03-19T18:47:12.166Z,41.70
2019-03-19T18:49:46.316Z,38.90
2019-03-19T18:52:16.698Z,41.17
2019-03-19T18:54:47.143Z,49.93
2019-03-19T18:57:17.782Z,38.17
2019-03-19T18:59:47.809Z,92.67
2019-03-19T19:02:18.098Z,45.20
2019-03-19T19:04:48.351Z,45.97
2019-03-19T19:07:18.850Z,47.90
2019-03-19T19:09:50.197Z,48.77
2019-03-19T19:12:20.485Z,52.83
2019-03-19T19:14:50.745Z,49.83
2019-03-19T19:17:21.502Z,50.40
2019-03-19T19:19:52.090Z,42.10
2019-03-19T19:22:22.587Z,43.90
2019-03-19T19:24:52.902Z,48.20
2019-03-19T19:27:23.207Z,50.17
2019-03-19T19:30:00.923Z,46.23
2019-03-19T19:32:31.174Z,44.00
2019-03-19T19:35:01.648Z,48.10
2019-03-19T19:37:34.535Z,51.33
2019-03-19T19:40:05.523Z,50.47
2019-03-19T19:42:35.841Z,48.03
2019-03-19T19:45:06.993Z,52.57
2019-03-19T19:47:37.684Z,41.97
2019-03-19T19:50:10.051Z,40.27
2019-03-19T19:52:41.443Z,42.27
2019-03-19T19:55:12.137Z,41.63
2019-03-19T19:57:42.489Z,46.53
2019-03-19T20:00:15.956Z,42.13
2019-03-19T20:02:46.438Z,42.87
2019-03-19T20:05:17.185Z,54.00
2019-03-19T20:07:47.626Z,43.50
2019-03-19T20:10:18.306Z,40.03
2019-03-19T20:12:49.787Z,42.33
2019-03-19T20:15:20.213Z,44.83
2019-03-19T20:17:50.488Z,43.37
2019-03-19T20:20:20.772Z,51.90
2019-03-19T20:22:52.074Z,45.83
2019-03-19T20:25:22.602Z,40.47
2019-03-19T20:27:53.241Z,47.53
2019-03-19T20:30:23.762Z,45.23
2019-03-19T20:32:54.222Z,43.33
2019-03-19T20:35:24.482Z,45.57
2019-03-19T20:37:54.780Z,44.90
2019-03-19T20:40:25.164Z,46.07
2019-03-19T20:42:57.091Z,54.50
2019-03-19T20:45:27.483Z,50.70
2019-03-19T20:47:57.787Z,65.93
2019-03-19T20:50:28.593Z,51.37
2019-03-19T20:52:59.055Z,49.67
2019-03-19T20:55:29.707Z,57.37
2019-03-19T20:57:59.995Z,51.60
2019-03-19T21:00:30.335Z,52.47
2019-03-19T21:03:00.570Z,54.17
2019-03-19T21:05:30.888Z,51.43
2019-03-19T21:08:01.150Z,57.60
2019-03-19T21:10:31.473Z,46.70
2019-03-19T21:13:01.706Z,57.13
2019-03-19T21:15:32.176Z,44.40
2019-03-19T21:18:04.527Z,49.77
2019-03-19T21:20:34.747Z,53.83
2019-03-19T21:23:05.467Z,51.87
2019-03-19T21:25:35.802Z,53.80
2019-03-19T21:28:14.008Z,55.20
2019-03-19T21:30:38.493Z,54.57
2019-03-19T21:33:09.118Z,55.63
2019-03-19T21:35:39.454Z,55.43
2019-03-19T21:38:09.819Z,54.57
2019-03-19T21:40:41.934Z,57.40
2019-03-19T21:43:13.366Z,59.27
2019-03-19T21:45:44.093Z,53.53
2019-03-19T21:48:14.356Z,61.80
2019-03-19T21:50:44.980Z,62.40
2019-03-19T21:53:15.231Z,63.27
2019-03-19T21:55:45.910Z,57.93
2019-03-19T21:58:16.232Z,62.93
2019-03-19T22:00:46.594Z,59.97
2019-03-19T22:03:17.046Z,64.33
2019-03-19T22:05:47.325Z,67.37
2019-03-19T22:08:17.861Z,55.53
2019-03-19T22:10:48.392Z,70.60
2019-03-19T22:13:18.661Z,65.27
2019-03-19T22:15:49.018Z,62.23
2019-03-19T22:18:19.309Z,71.10
2019-03-19T22:20:49.539Z,62.37
2019-03-19T22:23:19.811Z,67.23
2019-03-19T22:25:50.120Z,67.10
2019-03-19T22:28:21.999Z,63.80
2019-03-19T22:30:52.269Z,65.73
2019-03-19T22:33:23.344Z,72.07
2019-03-19T22:35:53.709Z,62.13
2019-03-19T22:38:23.961Z,66.57
2019-03-19T22:40:54.329Z,62.17
2019-03-19T22:43:25.945Z,68.57
2019-03-19T22:45:56.489Z,61.17
2019-03-19T22:48:26.807Z,68.30
2019-03-19T22:50:57.071Z,55.27
2019-03-19T22:53:27.299Z,56.27
2019-03-19T22:55:57.621Z,57.73
2019-03-19T22:58:27.894Z,62.57
2019-03-19T23:00:58.220Z,54.80
2019-03-19T23:03:28.818Z,63.83
2019-03-19T23:05:59.148Z,64.50
2019-03-19T23:08:29.871Z,57.63
2019-03-19T23:11:00.451Z,65.03
2019-03-19T23:13:30.811Z,60.83
2019-03-19T23:16:01.171Z,61.50
2019-03-19T23:18:31.522Z,62.07
2019-03-19T23:21:03.072Z,62.97
2019-03-19T23:23:33.386Z,60.63
2019-03-19T23:26:03.763Z,62.33
2019-03-19T23:28:34.119Z,55.37
2019-03-19T23:31:04.947Z,60.53
2019-03-19T23:33:35.453Z,65.47
2019-03-19T23:36:06.260Z,60.50
2019-03-19T23:38:36.598Z,58.70
2019-03-19T23:41:08.304Z,55.83
2019-03-19T23:43:38.731Z,73.27
2019-03-19T23:46:09.054Z,62.47
2019-03-19T23:48:39.355Z,68.13
2019-03-19T23:51:09.708Z,73.67
2019-03-19T23:53:40.060Z,72.53
2019-03-19T23:56:10.408Z,70.43
2019-03-19T23:58:40.815Z,69.40
